createdAt,value
2019-03-06T00:00:33.574Z,5.43
2019-03-06T00:01:37.159Z,5.50
2019-03-06T00:02:40.580Z,5.55
2019-03-06T00:03:44.079Z,5.51
2019-03-06T00:04:47.506Z,5.54
2019-03-06T00:05:51.163Z,5.56
2019-03-06T00:06:54.693Z,5.60
2019-03-06T00:07:58.193Z,5.52
2019-03-06T00:09:01.648Z,5.48
2019-03-06T00:10:23.065Z,5.44
2019-03-06T00:11:26.500Z,5.41
2019-03-06T00:12:30.017Z,5.42
2019-03-06T00:13:33.437Z,5.48
2019-03-06T00:14:36.934Z,5.52
2019-03-06T00:15:40.488Z,5.46
2019-03-06T00:16:44.063Z,5.48
2019-03-06T00:17:47.654Z,5.45
2019-03-06T00:18:51.322Z,5.44
2019-03-06T00:19:54.796Z,5.45
2019-03-06T00:20:58.193Z,5.40
2019-03-06T00:22:01.619Z,5.37
2019-03-06T00:23:05.146Z,5.31
2019-03-06T00:24:08.707Z,5.33
2019-03-06T00:25:12.394Z,5.30
2019-03-06T00:26:15.818Z,5.27
2019-03-06T00:27:19.235Z,5.29
2019-03-06T00:28:22.676Z,5.36
2019-03-06T00:29:26.121Z,5.37
2019-03-06T00:30:29.544Z,5.39
2019-03-06T00:31:32.970Z,5.34
2019-03-06T00:32:36.389Z,5.30
2019-03-06T00:33:39.828Z,5.30
2019-03-06T00:34:43.418Z,5.32
2019-03-06T00:35:48.757Z,5.35
2019-03-06T00:36:52.421Z,5.31
2019-03-06T00:37:55.912Z,5.24
2019-03-06T00:38:59.490Z,5.24
2019-03-06T00:40:04.548Z,5.23
2019-03-06T00:41:12.699Z,5.23
2019-03-06T00:42:16.151Z,5.28
2019-03-06T00:43:19.716Z,5.16
2019-03-06T00:44:23.158Z,5.15
2019-03-06T00:45:26.651Z,4.94
2019-03-06T00:46:30.078Z,5.21
2019-03-06T00:47:33.650Z,5.25
2019-03-06T00:48:37.064Z,5.19
2019-03-06T00:49:40.531Z,5.10
2019-03-06T00:50:43.982Z,5.08
2019-03-06T00:51:47.470Z,5.15
2019-03-06T00:52:50.952Z,5.22
2019-03-06T00:53:54.548Z,5.27
2019-03-06T00:54:58.291Z,5.23
2019-03-06T00:56:01.781Z,5.20
2019-03-06T00:57:05.209Z,5.23
2019-03-06T00:58:08.650Z,5.26
2019-03-06T00:59:12.134Z,5.27
2019-03-06T01:00:19.569Z,5.31
2019-03-06T01:01:23.046Z,5.33
2019-03-06T01:02:26.536Z,5.38
2019-03-06T01:03:29.955Z,5.40
2019-03-06T01:04:33.373Z,5.38
2019-03-06T01:05:36.818Z,5.33
2019-03-06T01:06:40.311Z,5.32
2019-03-06T01:07:43.809Z,5.33
2019-03-06T01:08:47.321Z,5.33
2019-03-06T01:09:50.750Z,5.33
2019-03-06T01:10:54.219Z,5.37
2019-03-06T01:11:57.704Z,5.27
2019-03-06T01:13:01.391Z,5.14
2019-03-06T01:14:04.952Z,5.13
2019-03-06T01:15:10.622Z,5.03
2019-03-06T01:16:14.221Z,4.97
2019-03-06T01:17:17.715Z,4.95
2019-03-06T01:18:21.206Z,4.92
2019-03-06T01:19:24.703Z,4.98
2019-03-06T01:20:28.264Z,4.92
2019-03-06T01:21:31.791Z,4.89
2019-03-06T01:22:35.301Z,4.90
2019-03-06T01:23:38.812Z,4.94
2019-03-06T01:24:42.226Z,4.98
2019-03-06T01:25:45.724Z,4.98
2019-03-06T01:26:49.168Z,4.99
2019-03-06T01:27:52.613Z,5.07
2019-03-06T01:28:56.035Z,5.12
2019-03-06T01:29:59.537Z,5.18
2019-03-06T01:31:03.130Z,5.19
2019-03-06T01:32:06.718Z,5.13
2019-03-06T01:33:27.732Z,5.12
2019-03-06T01:34:35.585Z,5.11
2019-03-06T01:35:46.107Z,5.05
2019-03-06T01:36:51.240Z,5.00
2019-03-06T01:38:12.388Z,5.03
2019-03-06T01:39:17.462Z,5.01
2019-03-06T01:40:38.730Z,4.97
2019-03-06T01:41:43.881Z,4.95
2019-03-06T01:42:48.959Z,4.81
2019-03-06T01:43:56.454Z,4.88
2019-03-06T01:44:59.884Z,4.89
2019-03-06T01:46:03.370Z,4.82
2019-03-06T01:47:06.792Z,4.74
2019-03-06T01:48:10.226Z,4.68
2019-03-06T01:49:13.669Z,4.65
2019-03-06T01:50:17.168Z,4.58
2019-03-06T01:51:20.844Z,4.62
2019-03-06T01:52:24.260Z,4.62
2019-03-06T01:53:27.690Z,4.56
2019-03-06T01:54:31.272Z,4.60
2019-03-06T01:55:37.115Z,4.56
2019-03-06T01:56:40.535Z,4.48
2019-03-06T01:57:44.026Z,4.45
2019-03-06T01:58:47.450Z,4.43
2019-03-06T01:59:50.894Z,4.41
2019-03-06T02:00:55.041Z,4.46
2019-03-06T02:01:58.531Z,4.52
2019-03-06T02:03:02.019Z,4.53
2019-03-06T02:04:05.506Z,4.58
2019-03-06T02:05:11.291Z,4.58
2019-03-06T02:06:14.816Z,4.61
2019-03-06T02:07:18.414Z,4.62
2019-03-06T02:08:21.922Z,4.66
2019-03-06T02:09:27.716Z,4.62
2019-03-06T02:10:32.371Z,4.51
2019-03-06T02:11:35.965Z,4.43
2019-03-06T02:12:39.528Z,4.42
2019-03-06T02:13:42.933Z,4.46
2019-03-06T02:14:46.429Z,4.43
2019-03-06T02:15:49.941Z,4.33
2019-03-06T02:16:53.464Z,4.26
2019-03-06T02:17:56.892Z,4.24
2019-03-06T02:19:01.348Z,4.26
2019-03-06T02:20:07.512Z,4.28
2019-03-06T02:21:11.142Z,4.30
2019-03-06T02:22:14.630Z,4.30
2019-03-06T02:23:18.143Z,4.28
2019-03-06T02:24:21.563Z,4.36
2019-03-06T02:25:25.057Z,4.35
2019-03-06T02:26:28.578Z,4.35
2019-03-06T02:27:31.998Z,4.40
2019-03-06T02:28:35.570Z,4.36
2019-03-06T02:29:39.156Z,4.34
2019-03-06T02:30:42.656Z,4.35
2019-03-06T02:31:46.116Z,4.41
2019-03-06T02:32:49.714Z,4.48
2019-03-06T02:33:53.187Z,4.56
2019-03-06T02:34:56.565Z,4.70
2019-03-06T02:36:00.054Z,4.71
2019-03-06T02:37:03.560Z,4.70
2019-03-06T02:38:07.013Z,4.73
2019-03-06T02:39:10.775Z,4.77
2019-03-06T02:40:17.342Z,4.79
2019-03-06T02:41:20.765Z,4.81
2019-03-06T02:42:24.210Z,4.68
2019-03-06T02:43:27.665Z,4.64
2019-03-06T02:44:31.093Z,4.60
2019-03-06T02:45:34.666Z,4.50
2019-03-06T02:46:38.165Z,4.42
2019-03-06T02:47:41.624Z,4.40
2019-03-06T02:48:45.050Z,4.35
2019-03-06T02:49:48.482Z,4.31
2019-03-06T02:50:51.902Z,4.35
2019-03-06T02:51:55.328Z,4.26
2019-03-06T02:52:58.799Z,4.23
2019-03-06T02:54:02.246Z,4.20
2019-03-06T02:55:07.918Z,4.27
2019-03-06T02:56:11.336Z,4.31
2019-03-06T02:57:14.798Z,4.28
2019-03-06T02:58:19.943Z,4.26
2019-03-06T02:59:27.689Z,4.33
2019-03-06T03:00:35.390Z,4.29
2019-03-06T03:01:40.441Z,4.17
2019-03-06T03:02:45.512Z,4.17
2019-03-06T03:04:06.557Z,4.26
2019-03-06T03:05:14.883Z,4.28
2019-03-06T03:06:19.962Z,4.28
2019-03-06T03:07:23.449Z,4.19
2019-03-06T03:08:26.903Z,4.19
2019-03-06T03:09:30.357Z,4.17
2019-03-06T03:10:33.863Z,4.11
2019-03-06T03:11:37.573Z,4.10
2019-03-06T03:12:41.169Z,4.12
2019-03-06T03:13:44.602Z,4.13
2019-03-06T03:14:48.063Z,4.09
2019-03-06T03:15:51.525Z,4.10
2019-03-06T03:16:54.961Z,4.15
2019-03-06T03:17:58.371Z,4.14
2019-03-06T03:19:01.801Z,4.17
2019-03-06T03:20:07.387Z,4.12
2019-03-06T03:21:10.807Z,4.07
2019-03-06T03:22:14.233Z,4.17
2019-03-06T03:23:17.683Z,4.27
2019-03-06T03:24:21.095Z,4.18
2019-03-06T03:25:24.605Z,4.14
2019-03-06T03:26:28.112Z,4.09
2019-03-06T03:27:31.530Z,4.08
2019-03-06T03:28:35.250Z,4.01
2019-03-06T03:29:38.736Z,3.95
2019-03-06T03:30:42.200Z,3.93
2019-03-06T03:31:45.614Z,3.91
2019-03-06T03:32:49.024Z,3.91
2019-03-06T03:33:52.475Z,3.89
2019-03-06T03:34:56.018Z,3.85
2019-03-06T03:35:59.477Z,3.89
2019-03-06T03:37:02.927Z,3.92
2019-03-06T03:38:06.426Z,3.95
2019-03-06T03:39:09.947Z,3.96
2019-03-06T03:40:15.507Z,3.95
2019-03-06T03:41:18.954Z,3.95
2019-03-06T03:42:22.509Z,3.95
2019-03-06T03:43:25.894Z,3.92
2019-03-06T03:44:29.398Z,3.96
2019-03-06T03:45:33.150Z,3.93
2019-03-06T03:46:36.604Z,3.96
2019-03-06T03:47:40.029Z,3.98
2019-03-06T03:48:43.555Z,3.98
2019-03-06T03:49:47.006Z,4.00
2019-03-06T03:50:50.528Z,4.06
2019-03-06T03:51:53.980Z,4.04
2019-03-06T03:52:57.425Z,4.02
2019-03-06T03:54:00.950Z,3.95
2019-03-06T03:55:06.816Z,3.94
2019-03-06T03:56:10.229Z,3.93
2019-03-06T03:57:13.759Z,3.97
2019-03-06T03:58:17.428Z,4.00
2019-03-06T03:59:20.874Z,4.02
2019-03-06T04:00:24.549Z,4.02
2019-03-06T04:01:28.239Z,4.03
2019-03-06T04:02:31.763Z,4.02
2019-03-06T04:03:35.210Z,4.01
2019-03-06T04:04:38.711Z,3.91
2019-03-06T04:05:42.341Z,3.90
2019-03-06T04:06:45.930Z,3.93
2019-03-06T04:07:49.371Z,3.92
2019-03-06T04:08:52.903Z,3.93
2019-03-06T04:09:56.400Z,3.98
2019-03-06T04:10:59.858Z,3.98
2019-03-06T04:12:03.290Z,3.89
2019-03-06T04:13:06.726Z,3.89
2019-03-06T04:14:10.160Z,3.93
2019-03-06T04:15:17.811Z,3.98
2019-03-06T04:16:21.246Z,3.95
2019-03-06T04:17:24.748Z,3.89
2019-03-06T04:18:28.556Z,3.92
2019-03-06T04:19:32.064Z,3.92
2019-03-06T04:20:35.495Z,3.94
2019-03-06T04:21:38.929Z,3.98
2019-03-06T04:22:42.353Z,3.98
2019-03-06T04:23:45.813Z,3.93
2019-03-06T04:24:49.247Z,3.89
2019-03-06T04:25:52.678Z,3.95
2019-03-06T04:26:56.182Z,4.02
2019-03-06T04:27:59.611Z,4.02
2019-03-06T04:29:03.077Z,4.07
2019-03-06T04:30:11.941Z,4.03
2019-03-06T04:31:15.372Z,3.98
2019-03-06T04:32:18.823Z,3.96
2019-03-06T04:33:22.358Z,3.95
2019-03-06T04:34:25.789Z,3.91
2019-03-06T04:35:29.514Z,3.97
2019-03-06T04:36:32.997Z,4.04
2019-03-06T04:37:36.437Z,4.05
2019-03-06T04:38:39.876Z,4.04
2019-03-06T04:39:43.327Z,4.03
2019-03-06T04:40:46.849Z,3.98
2019-03-06T04:41:50.278Z,3.99
2019-03-06T04:42:53.793Z,3.96
2019-03-06T04:43:57.637Z,3.90
2019-03-06T04:45:01.099Z,3.87
2019-03-06T04:46:04.682Z,3.83
2019-03-06T04:47:08.137Z,3.87
2019-03-06T04:48:11.634Z,3.89
2019-03-06T04:49:15.074Z,3.96
2019-03-06T04:50:18.589Z,3.93
2019-03-06T04:51:22.020Z,3.97
2019-03-06T04:52:25.627Z,3.97
2019-03-06T04:53:29.053Z,3.95
2019-03-06T04:54:32.487Z,3.92
2019-03-06T04:55:35.960Z,3.89
2019-03-06T04:56:39.493Z,3.89
2019-03-06T04:57:42.928Z,3.88
2019-03-06T04:58:46.376Z,3.84
2019-03-06T04:59:49.812Z,3.83
2019-03-06T05:00:53.368Z,3.84
2019-03-06T05:01:56.797Z,3.90
2019-03-06T05:03:00.264Z,3.86
2019-03-06T05:04:03.695Z,3.86
2019-03-06T05:05:07.238Z,3.87
2019-03-06T05:06:10.730Z,3.85
2019-03-06T05:07:14.167Z,3.89
2019-03-06T05:08:17.681Z,3.87
2019-03-06T05:09:21.390Z,3.86
2019-03-06T05:10:24.838Z,3.86
2019-03-06T05:11:28.297Z,3.87
2019-03-06T05:12:31.721Z,3.93
2019-03-06T05:13:35.160Z,3.92
2019-03-06T05:14:38.591Z,3.90
2019-03-06T05:15:42.161Z,3.88
2019-03-06T05:16:59.508Z,3.88
2019-03-06T05:18:16.374Z,3.86
2019-03-06T05:19:19.880Z,3.79
2019-03-06T05:20:23.312Z,3.84
2019-03-06T05:21:26.751Z,3.86
2019-03-06T05:22:30.203Z,3.86
2019-03-06T05:23:33.653Z,3.89
2019-03-06T05:24:37.096Z,3.87
2019-03-06T05:25:40.591Z,3.86
2019-03-06T05:26:44.071Z,3.83
2019-03-06T05:27:47.589Z,3.91
2019-03-06T05:28:51.032Z,3.92
2019-03-06T05:29:54.461Z,3.98
2019-03-06T05:30:57.885Z,3.98
2019-03-06T05:32:30.008Z,3.94
2019-03-06T05:33:33.467Z,3.92
2019-03-06T05:34:36.901Z,3.89
2019-03-06T05:35:52.265Z,3.86
2019-03-06T05:37:07.739Z,3.84
2019-03-06T05:38:19.822Z,3.77
2019-03-06T05:39:23.265Z,3.69
2019-03-06T05:40:26.701Z,3.81
2019-03-06T05:41:30.195Z,3.85
2019-03-06T05:42:33.689Z,3.76
2019-03-06T05:43:37.134Z,3.76
2019-03-06T05:44:40.594Z,3.80
2019-03-06T05:45:44.118Z,3.81
2019-03-06T05:46:47.559Z,3.82
2019-03-06T05:47:50.992Z,3.77
2019-03-06T05:48:54.624Z,3.81
2019-03-06T05:49:58.257Z,3.81
2019-03-06T05:51:01.723Z,3.75
2019-03-06T05:52:05.149Z,3.72
2019-03-06T05:53:08.663Z,3.74
2019-03-06T05:54:12.185Z,3.77
2019-03-06T05:55:15.638Z,3.80
2019-03-06T05:56:19.136Z,3.81
2019-03-06T05:57:22.569Z,3.80
2019-03-06T05:58:25.998Z,3.77
2019-03-06T05:59:29.445Z,3.75
2019-03-06T06:00:32.871Z,3.76
2019-03-06T06:01:36.304Z,3.76
2019-03-06T06:02:39.747Z,3.81
2019-03-06T06:03:43.200Z,3.86
2019-03-06T06:04:46.674Z,3.86
2019-03-06T06:05:50.101Z,3.84
2019-03-06T06:06:53.702Z,3.87
2019-03-06T06:07:57.210Z,3.78
2019-03-06T06:09:00.638Z,3.82
2019-03-06T06:10:05.924Z,3.78
2019-03-06T06:11:09.385Z,3.76
2019-03-06T06:12:12.809Z,3.74
2019-03-06T06:13:16.236Z,3.82
2019-03-06T06:14:19.662Z,3.86
2019-03-06T06:15:23.116Z,3.90
2019-03-06T06:16:26.626Z,3.93
2019-03-06T06:17:30.072Z,3.94
2019-03-06T06:18:33.505Z,3.83
2019-03-06T06:19:36.998Z,3.83
2019-03-06T06:20:40.442Z,3.86
2019-03-06T06:21:48.319Z,3.87
2019-03-06T06:22:58.844Z,3.94
2019-03-06T06:24:03.906Z,3.94
2019-03-06T06:25:07.577Z,3.97
2019-03-06T06:26:11.021Z,4.02
2019-03-06T06:27:14.598Z,4.06
2019-03-06T06:28:18.305Z,4.12
2019-03-06T06:29:21.746Z,4.12
2019-03-06T06:30:25.170Z,4.08
2019-03-06T06:31:29.266Z,4.07
2019-03-06T06:32:33.073Z,4.06
2019-03-06T06:33:36.551Z,4.10
2019-03-06T06:34:39.972Z,4.15
2019-03-06T06:35:43.407Z,4.13
2019-03-06T06:36:46.875Z,4.15
2019-03-06T06:37:50.342Z,4.12
2019-03-06T06:38:53.767Z,4.16
2019-03-06T06:39:57.188Z,4.15
2019-03-06T06:41:00.615Z,4.16
2019-03-06T06:42:04.058Z,4.21
2019-03-06T06:43:07.510Z,4.22
2019-03-06T06:44:11.013Z,4.24
2019-03-06T06:45:17.952Z,4.24
2019-03-06T06:46:21.379Z,4.27
2019-03-06T06:47:24.835Z,4.28
2019-03-06T06:48:29.443Z,4.31
2019-03-06T06:49:32.950Z,4.33
2019-03-06T06:50:38.539Z,4.37
2019-03-06T06:52:10.668Z,4.37
2019-03-06T06:53:25.907Z,4.40
2019-03-06T06:54:44.112Z,4.39
2019-03-06T06:56:05.510Z,4.43
2019-03-06T06:57:14.666Z,4.41
2019-03-06T06:58:32.916Z,4.48
2019-03-06T06:59:48.216Z,4.50
2019-03-06T07:01:11.112Z,4.51
2019-03-06T07:02:36.780Z,4.50
2019-03-06T07:04:22.323Z,4.50
2019-03-06T07:05:32.845Z,4.54
2019-03-06T07:06:46.910Z,4.50
2019-03-06T07:08:07.792Z,4.53
2019-03-06T07:09:12.859Z,4.58
2019-03-06T07:10:33.877Z,4.64
2019-03-06T07:11:41.729Z,4.65
2019-03-06T07:12:49.341Z,4.66
2019-03-06T07:13:57.090Z,4.68
2019-03-06T07:15:04.700Z,4.71
2019-03-06T07:16:12.531Z,4.73
2019-03-06T07:17:23.105Z,4.76
2019-03-06T07:18:30.855Z,4.79
2019-03-06T07:19:35.921Z,4.80
2019-03-06T07:20:57.084Z,4.84
2019-03-06T07:22:02.222Z,4.87
2019-03-06T07:23:10.270Z,4.90
2019-03-06T07:24:21.154Z,4.93
2019-03-06T07:25:26.221Z,4.92
2019-03-06T07:26:37.203Z,4.89
2019-03-06T07:27:50.994Z,4.82
2019-03-06T07:29:02.247Z,4.87
2019-03-06T07:30:10.561Z,4.92
2019-03-06T07:31:21.938Z,4.96
2019-03-06T07:32:42.192Z,4.95
2019-03-06T07:33:49.944Z,4.98
2019-03-06T07:35:45.848Z,4.99
2019-03-06T07:36:53.811Z,5.06
2019-03-06T07:37:58.871Z,5.11
2019-03-06T07:39:03.670Z,5.12
2019-03-06T07:40:09.398Z,5.15
2019-03-06T07:41:30.742Z,5.20
2019-03-06T07:42:36.003Z,5.27
2019-03-06T07:43:52.770Z,5.32
2019-03-06T07:45:49.934Z,5.33
2019-03-06T07:47:03.719Z,5.36
2019-03-06T07:48:17.670Z,5.42
2019-03-06T07:49:22.909Z,5.43
2019-03-06T07:50:33.879Z,5.45
2019-03-06T07:51:44.635Z,5.45
2019-03-06T07:53:00.755Z,5.50
2019-03-06T07:54:06.899Z,5.52
2019-03-06T07:55:11.974Z,5.59
2019-03-06T07:56:32.907Z,5.64
2019-03-06T07:57:41.033Z,5.64
2019-03-06T07:58:54.837Z,5.69
2019-03-06T07:59:58.257Z,5.70
2019-03-06T08:01:01.688Z,5.74
2019-03-06T08:02:26.066Z,5.77
2019-03-06T08:03:29.520Z,5.80
2019-03-06T08:04:33.022Z,5.82
2019-03-06T08:05:36.451Z,5.85
2019-03-06T08:06:41.915Z,5.88
2019-03-06T08:07:46.396Z,5.88
2019-03-06T08:08:49.859Z,5.91
2019-03-06T08:09:53.425Z,5.97
2019-03-06T08:10:57.224Z,6.03
2019-03-06T08:12:08.095Z,6.04
2019-03-06T08:13:16.070Z,6.06
2019-03-06T08:14:36.838Z,6.07
2019-03-06T08:15:44.586Z,6.11
2019-03-06T08:16:49.646Z,6.19
2019-03-06T08:18:03.575Z,6.22
2019-03-06T08:19:17.426Z,6.25
2019-03-06T08:20:22.628Z,6.32
2019-03-06T08:21:30.690Z,6.37
2019-03-06T08:22:38.580Z,6.41
2019-03-06T08:23:43.729Z,6.43
2019-03-06T08:24:54.750Z,6.42
2019-03-06T08:25:58.246Z,6.46
2019-03-06T08:27:01.662Z,6.52
2019-03-06T08:28:05.266Z,6.58
2019-03-06T08:29:08.813Z,6.62
2019-03-06T08:30:12.558Z,6.66
2019-03-06T08:31:23.436Z,6.66
2019-03-06T08:32:28.893Z,6.70
2019-03-06T08:33:32.304Z,6.71
2019-03-06T08:34:35.841Z,6.72
2019-03-06T08:35:39.404Z,6.77
2019-03-06T08:36:42.906Z,6.82
2019-03-06T08:37:46.321Z,6.87
2019-03-06T08:38:49.844Z,6.92
2019-03-06T08:39:53.543Z,6.94
2019-03-06T08:41:03.860Z,6.99
2019-03-06T08:42:02.185Z,7.02
2019-03-06T08:43:08.351Z,7.05
2019-03-06T08:44:11.799Z,7.09
2019-03-06T08:45:33.330Z,7.06
2019-03-06T08:46:38.457Z,7.07
2019-03-06T08:47:55.328Z,7.08
2019-03-06T08:49:16.538Z,7.12
2019-03-06T08:50:30.404Z,7.18
2019-03-06T08:51:41.042Z,7.20
2019-03-06T08:52:46.207Z,7.20
2019-03-06T08:53:57.085Z,7.27
2019-03-06T08:55:02.250Z,7.33
2019-03-06T08:56:23.519Z,7.38
2019-03-06T08:57:28.716Z,7.43
2019-03-06T08:58:49.992Z,7.47
2019-03-06T09:00:00.990Z,7.51
2019-03-06T09:01:33.749Z,7.58
2019-03-06T09:02:50.625Z,7.61
2019-03-06T09:04:07.560Z,7.70
2019-03-06T09:05:13.867Z,7.75
2019-03-06T09:06:28.171Z,7.81
2019-03-06T09:07:39.027Z,7.88
2019-03-06T09:08:46.829Z,7.90
2019-03-06T09:10:07.574Z,7.89
2019-03-06T09:11:12.654Z,7.90
2019-03-06T09:12:20.461Z,7.95
2019-03-06T09:13:37.414Z,7.97
2019-03-06T09:14:48.327Z,7.97
2019-03-06T09:15:53.378Z,7.97
2019-03-06T09:17:10.419Z,8.01
2019-03-06T09:18:21.456Z,8.05
2019-03-06T09:19:41.645Z,8.08
2019-03-06T09:20:55.525Z,8.14
2019-03-06T09:22:00.660Z,8.15
2019-03-06T09:23:12.175Z,8.19
2019-03-06T09:24:32.928Z,8.24
2019-03-06T09:25:43.718Z,8.27
2019-03-06T09:27:00.963Z,8.35
2019-03-06T09:28:06.123Z,8.38
2019-03-06T09:29:11.328Z,8.50
2019-03-06T09:30:25.510Z,8.50
2019-03-06T09:31:30.572Z,8.55
2019-03-06T09:32:44.824Z,8.55
2019-03-06T09:34:01.648Z,8.61
2019-03-06T09:35:24.694Z,8.61
2019-03-06T09:36:38.659Z,8.64
2019-03-06T09:37:52.220Z,8.77
2019-03-06T09:39:06.055Z,8.77
2019-03-06T09:40:29.716Z,8.82
2019-03-06T09:41:43.847Z,8.76
2019-03-06T09:42:54.492Z,8.81
2019-03-06T09:44:17.671Z,9.00
2019-03-06T09:45:25.441Z,9.14
2019-03-06T09:46:32.984Z,9.14
2019-03-06T09:47:53.776Z,9.19
2019-03-06T09:49:13.557Z,9.19
2019-03-06T09:50:37.538Z,9.17
2019-03-06T09:51:51.719Z,9.22
2019-03-06T09:53:02.473Z,9.18
2019-03-06T09:54:13.650Z,9.22
2019-03-06T09:55:30.920Z,9.24
2019-03-06T09:56:51.781Z,9.23
2019-03-06T09:57:59.568Z,9.18
2019-03-06T09:59:04.647Z,9.26
2019-03-06T10:00:21.571Z,9.30
2019-03-06T10:01:38.517Z,9.35
2019-03-06T10:02:49.252Z,9.44
2019-03-06T10:03:57.092Z,9.51
2019-03-06T10:05:04.822Z,9.49
2019-03-06T10:06:25.883Z,9.49
2019-03-06T10:07:36.561Z,9.54
2019-03-06T10:08:41.766Z,9.53
2019-03-06T10:09:46.852Z,9.57
2019-03-06T10:10:57.521Z,9.58
2019-03-06T10:12:16.908Z,9.63
2019-03-06T10:13:21.975Z,9.73
2019-03-06T10:14:32.784Z,9.79
2019-03-06T10:15:56.175Z,9.81
2019-03-06T10:17:04.051Z,9.82
2019-03-06T10:18:09.128Z,9.85
2019-03-06T10:19:22.899Z,9.85
2019-03-06T10:20:26.833Z,9.88
2019-03-06T10:21:30.255Z,9.93
2019-03-06T10:22:33.683Z,10.05
2019-03-06T10:23:37.352Z,10.11
2019-03-06T10:24:40.806Z,10.14
2019-03-06T10:25:44.243Z,10.21
2019-03-06T10:26:47.751Z,10.21
2019-03-06T10:27:51.206Z,10.19
2019-03-06T10:28:54.696Z,10.23
2019-03-06T10:29:58.276Z,10.25
2019-03-06T10:31:02.805Z,10.25
2019-03-06T10:32:06.342Z,10.32
2019-03-06T10:33:10.005Z,10.40
2019-03-06T10:34:13.495Z,10.46
2019-03-06T10:35:17.121Z,10.48
2019-03-06T10:36:21.109Z,10.49
2019-03-06T10:37:24.612Z,10.62
2019-03-06T10:38:28.111Z,10.69
2019-03-06T10:39:31.636Z,10.80
2019-03-06T10:40:35.087Z,10.82
2019-03-06T10:41:38.694Z,10.78
2019-03-06T10:42:42.130Z,10.72
2019-03-06T10:43:49.098Z,10.71
2019-03-06T10:44:50.789Z,10.74
2019-03-06T10:45:54.313Z,10.76
2019-03-06T10:46:57.817Z,10.82
2019-03-06T10:48:01.495Z,10.83
2019-03-06T10:49:05.347Z,10.85
2019-03-06T10:50:12.065Z,10.85
2019-03-06T10:51:15.601Z,10.92
2019-03-06T10:52:19.292Z,10.97
2019-03-06T10:53:22.856Z,11.08
2019-03-06T10:54:26.476Z,11.15
2019-03-06T10:55:30.114Z,11.25
2019-03-06T10:56:33.880Z,11.35
2019-03-06T10:57:37.504Z,11.37
2019-03-06T10:58:41.148Z,11.40
2019-03-06T10:59:44.911Z,11.43
2019-03-06T11:00:55.271Z,11.52
2019-03-06T11:01:58.803Z,11.59
2019-03-06T11:03:02.402Z,11.59
2019-03-06T11:04:24.083Z,11.56
2019-03-06T11:05:31.810Z,11.58
2019-03-06T11:06:35.377Z,11.52
2019-03-06T11:07:38.892Z,11.55
2019-03-06T11:08:42.387Z,11.64
2019-03-06T11:09:46.057Z,11.68
2019-03-06T11:10:49.637Z,11.77
2019-03-06T11:11:53.326Z,11.84
2019-03-06T11:12:57.718Z,11.93
2019-03-06T11:14:06.149Z,11.98
2019-03-06T11:15:09.414Z,12.01
2019-03-06T11:16:13.280Z,11.96
2019-03-06T11:17:17.187Z,11.91
2019-03-06T11:18:21.148Z,12.01
2019-03-06T11:19:24.712Z,12.10
2019-03-06T11:20:35.455Z,12.13
2019-03-06T11:21:40.425Z,12.14
2019-03-06T11:22:44.014Z,12.11
2019-03-06T11:23:47.664Z,12.11
2019-03-06T11:24:51.179Z,12.21
2019-03-06T11:25:54.740Z,12.22
2019-03-06T11:26:58.318Z,12.26
2019-03-06T11:28:02.159Z,12.33
2019-03-06T11:29:08.560Z,12.33
2019-03-06T11:30:20.972Z,12.32
2019-03-06T11:31:24.607Z,12.34
2019-03-06T11:32:28.168Z,12.34
2019-03-06T11:33:31.766Z,12.35
2019-03-06T11:34:35.334Z,12.35
2019-03-06T11:35:39.475Z,12.45
2019-03-06T11:36:43.134Z,12.52
2019-03-06T11:37:46.704Z,12.55
2019-03-06T11:38:50.213Z,12.62
2019-03-06T11:39:53.793Z,12.61
2019-03-06T11:40:57.976Z,12.49
2019-03-06T11:42:01.655Z,12.43
2019-03-06T11:43:06.922Z,12.38
2019-03-06T11:44:10.613Z,12.37
2019-03-06T11:45:17.172Z,12.42
2019-03-06T11:46:20.773Z,12.37
2019-03-06T11:47:24.358Z,12.33
2019-03-06T11:48:27.852Z,12.35
2019-03-06T11:49:31.314Z,12.41
2019-03-06T11:50:40.933Z,12.44
2019-03-06T11:51:40.107Z,12.46
2019-03-06T11:52:43.841Z,12.49
2019-03-06T11:53:48.041Z,12.50
2019-03-06T11:54:51.507Z,12.51
2019-03-06T11:55:55.168Z,12.51
2019-03-06T11:56:58.662Z,12.50
2019-03-06T11:58:02.226Z,12.49
2019-03-06T11:59:05.716Z,12.47
2019-03-06T12:00:16.675Z,12.46
2019-03-06T12:01:21.832Z,12.46
2019-03-06T12:02:25.399Z,12.52
2019-03-06T12:03:29.029Z,12.53
2019-03-06T12:04:32.553Z,12.50
2019-03-06T12:05:37.639Z,12.51
2019-03-06T12:06:41.251Z,12.52
2019-03-06T12:07:44.669Z,12.52
2019-03-06T12:08:48.229Z,12.50
2019-03-06T12:09:51.740Z,12.49
2019-03-06T12:10:55.595Z,12.46
2019-03-06T12:11:59.671Z,12.44
2019-03-06T12:13:04.631Z,12.46
2019-03-06T12:14:08.261Z,12.51
2019-03-06T12:15:12.460Z,12.58
2019-03-06T12:16:18.554Z,12.60
2019-03-06T12:17:22.160Z,12.62
2019-03-06T12:18:25.672Z,12.65
2019-03-06T12:19:29.250Z,12.69
2019-03-06T12:20:33.076Z,12.74
2019-03-06T12:21:36.874Z,12.74
2019-03-06T12:22:40.453Z,12.77
2019-03-06T12:23:44.020Z,12.79
2019-03-06T12:24:47.493Z,12.75
2019-03-06T12:25:51.091Z,12.79
2019-03-06T12:26:54.518Z,12.78
2019-03-06T12:27:58.040Z,12.81
2019-03-06T12:29:01.455Z,12.86
2019-03-06T12:30:11.081Z,12.84
2019-03-06T12:31:14.615Z,12.79
2019-03-06T12:32:18.063Z,12.73
2019-03-06T12:33:24.086Z,12.73
2019-03-06T12:34:27.497Z,12.70
2019-03-06T12:35:30.947Z,12.70
2019-03-06T12:36:36.128Z,12.71
2019-03-06T12:37:46.710Z,12.75
2019-03-06T12:38:44.855Z,12.77
2019-03-06T12:39:48.455Z,12.77
2019-03-06T12:40:52.032Z,12.77
2019-03-06T12:41:55.555Z,12.80
2019-03-06T12:42:58.990Z,12.83
2019-03-06T12:44:10.215Z,12.88
2019-03-06T12:45:12.686Z,12.90
2019-03-06T12:46:23.629Z,12.89
2019-03-06T12:47:23.921Z,12.91
2019-03-06T12:48:27.366Z,13.00
2019-03-06T12:49:30.901Z,13.03
2019-03-06T12:50:39.255Z,13.08
2019-03-06T12:51:42.683Z,13.15
2019-03-06T12:52:46.266Z,13.21
2019-03-06T12:53:49.711Z,13.29
2019-03-06T12:54:53.206Z,13.44
2019-03-06T12:55:56.701Z,13.57
2019-03-06T12:57:00.203Z,13.66
2019-03-06T12:58:04.672Z,13.75
2019-03-06T12:59:08.340Z,13.70
2019-03-06T13:00:17.431Z,13.54
2019-03-06T13:01:21.436Z,13.44
2019-03-06T13:02:24.907Z,13.35
2019-03-06T13:03:28.422Z,13.35
2019-03-06T13:04:31.946Z,13.31
2019-03-06T13:05:35.495Z,13.36
2019-03-06T13:06:38.924Z,13.48
2019-03-06T13:07:42.417Z,13.49
2019-03-06T13:08:50.414Z,13.48
2019-03-06T13:09:51.155Z,13.52
2019-03-06T13:10:54.587Z,13.62
2019-03-06T13:11:58.237Z,13.75
2019-03-06T13:13:01.901Z,13.83
2019-03-06T13:14:05.665Z,13.87
2019-03-06T13:15:15.206Z,14.04
2019-03-06T13:16:18.784Z,14.17
2019-03-06T13:17:22.442Z,14.13
2019-03-06T13:18:25.939Z,14.04
2019-03-06T13:19:29.385Z,13.98
2019-03-06T13:20:32.879Z,13.93
2019-03-06T13:21:36.446Z,13.90
2019-03-06T13:22:40.304Z,13.87
2019-03-06T13:23:43.805Z,13.83
2019-03-06T13:24:47.417Z,13.81
2019-03-06T13:25:50.921Z,13.77
2019-03-06T13:26:54.348Z,13.67
2019-03-06T13:27:57.796Z,13.75
2019-03-06T13:29:01.556Z,13.89
2019-03-06T13:30:17.361Z,14.05
2019-03-06T13:31:21.090Z,14.25
2019-03-06T13:32:26.446Z,14.58
2019-03-06T13:33:34.056Z,14.87
2019-03-06T13:34:37.554Z,14.92
2019-03-06T13:35:41.142Z,14.80
2019-03-06T13:36:44.579Z,14.80
2019-03-06T13:37:48.006Z,14.78
2019-03-06T13:38:54.998Z,14.73
2019-03-06T13:39:56.658Z,14.75
2019-03-06T13:41:00.171Z,14.76
2019-03-06T13:42:03.838Z,14.74
2019-03-06T13:43:07.516Z,14.62
2019-03-06T13:44:10.943Z,14.57
2019-03-06T13:45:15.567Z,14.48
2019-03-06T13:46:19.157Z,14.36
2019-03-06T13:47:22.759Z,14.32
2019-03-06T13:48:26.179Z,14.31
2019-03-06T13:49:29.602Z,14.26
2019-03-06T13:50:33.182Z,14.24
2019-03-06T13:51:36.658Z,14.22
2019-03-06T13:52:40.163Z,14.18
2019-03-06T13:53:43.620Z,14.11
2019-03-06T13:54:47.043Z,14.10
2019-03-06T13:55:50.545Z,14.11
2019-03-06T13:56:54.042Z,14.15
2019-03-06T13:57:57.534Z,14.19
2019-03-06T13:59:00.952Z,14.24
2019-03-06T14:00:10.102Z,14.34
2019-03-06T14:01:14.372Z,14.40
2019-03-06T14:02:18.249Z,14.51
2019-03-06T14:03:21.824Z,14.61
2019-03-06T14:04:25.316Z,14.70
2019-03-06T14:05:28.886Z,14.70
2019-03-06T14:06:32.759Z,14.65
2019-03-06T14:07:36.206Z,14.60
2019-03-06T14:08:39.655Z,14.66
2019-03-06T14:09:43.157Z,14.78
2019-03-06T14:10:46.818Z,14.92
2019-03-06T14:11:50.383Z,15.01
2019-03-06T14:12:53.898Z,15.08
2019-03-06T14:13:57.423Z,15.19
2019-03-06T14:15:01.217Z,15.21
2019-03-06T14:16:05.462Z,15.18
2019-03-06T14:17:09.209Z,15.06
2019-03-06T14:18:13.289Z,14.97
2019-03-06T14:19:16.721Z,14.99
2019-03-06T14:20:24.259Z,15.02
2019-03-06T14:21:27.854Z,15.00
2019-03-06T14:22:31.443Z,15.05
2019-03-06T14:23:35.492Z,15.04
2019-03-06T14:24:39.127Z,14.99
2019-03-06T14:25:42.683Z,14.89
2019-03-06T14:26:46.185Z,14.82
2019-03-06T14:27:49.845Z,14.78
2019-03-06T14:28:53.467Z,14.69